»·PEaware :: N313NJ KMHV-KSBD

N313NJ :: KMHV-KSBD

FLIGHT INFORMATION

Flight Status: Arrived
Operator: Privately registered:
United States
More flights under this callsign
Pilot: Tyler J. (19619)
Aircraft: PIPER PA-46-500TP MALIBU MERIDIAN
(P46T)
More flights by this aircraft type
Origin: KMHV Mojave
United States
Destination: KSBD San Bernardino Intl
United States
More flights between these airports :: More routes between these airports
Route: +
File this flight plan on PilotEdge
Remarks:
Altitude:
(Current/Filed)
11,500ft
Speed:
(Current/Filed)
230kts
Departed: 06-Apr-19 06:52 PM
Arrived: 06-Apr-19 07:38 PM
Distance/Time
Traveled:
73nm/0:45
Distance/Time
To Go:
Arrived

Flight Plot

Page will automatically refresh every two minutes.

Flight plan parsing failed; only flown route is shown


Map Options




Map Legend


Flown Route
Filed Route
Departure Airport
Arrival Airport
Navaid (VOR, NDB)
Fix

Horizontal Profiles

Position Reports

Time Latitude Longitude Heading Altitude Ground
Speed
06-Apr-19 18:26 35.057036 -118.163952 338 2795ft 0kts
06-Apr-19 18:27 35.057036 -118.163952 338 2795ft 0kts
06-Apr-19 18:28 35.057036 -118.163952 338 2795ft 0kts
06-Apr-19 18:29 35.057036 -118.163952 338 2795ft 0kts
06-Apr-19 18:30 35.057036 -118.163952 338 2795ft 0kts
06-Apr-19 18:31 35.057036 -118.163952 338 2795ft 0kts
06-Apr-19 18:32 35.057036 -118.163953 338 2795ft 0kts
06-Apr-19 18:33 35.057038 -118.163954 338 2795ft 0kts
06-Apr-19 18:34 35.057040 -118.163955 338 2795ft 0kts
06-Apr-19 18:35 35.057043 -118.163956 338 2795ft 0kts
06-Apr-19 18:36 35.057107 -118.163943 32 2795ft 0kts
06-Apr-19 18:37 35.057109 -118.163941 32 2795ft 0kts
06-Apr-19 18:38 35.057111 -118.163940 32 2795ft 0kts
06-Apr-19 18:39 35.057113 -118.163938 32 2795ft 0kts
06-Apr-19 18:40 35.057116 -118.163936 32 2795ft 0kts
06-Apr-19 18:40 35.057118 -118.163934 32 2795ft 0kts
06-Apr-19 18:41 35.057121 -118.163932 32 2795ft 0kts
06-Apr-19 18:43 35.057124 -118.163930 31 2795ft 0kts
06-Apr-19 18:44 35.057386 -118.163286 82 2795ft 16kts
06-Apr-19 18:44 35.057442 -118.157252 89 2795ft 21kts
06-Apr-19 18:45 35.057230 -118.151324 79 2795ft 0kts
06-Apr-19 18:47 35.055943 -118.146783 132 2795ft 21kts
06-Apr-19 18:47 35.052284 -118.142296 135 2795ft 23kts
06-Apr-19 18:48 35.048275 -118.136887 50 2795ft 9kts
06-Apr-19 18:49 35.048343 -118.136793 48 2795ft 0kts
06-Apr-19 18:50 35.049372 -118.136491 315 2795ft 19kts
06-Apr-19 18:51 35.067941 -118.159505 307 4108ft 121kts
06-Apr-19 18:52 35.038436 -118.169404 159 6218ft 176kts
06-Apr-19 18:53 34.989617 -118.141974 158 7356ft 194kts
06-Apr-19 18:54 34.935915 -118.121292 177 8885ft 208kts
06-Apr-19 18:55 34.878607 -118.116224 182 10378ft 206kts
06-Apr-19 18:56 34.821805 -118.114798 183 11486ft 221kts
06-Apr-19 18:57 34.758567 -118.113499 183 11548ft 217kts
06-Apr-19 18:58 34.700510 -118.106381 171 11551ft 209kts
06-Apr-19 18:59 34.647252 -118.092194 171 11551ft 208kts
06-Apr-19 19:00 34.594927 -118.064754 133 11554ft 211kts
06-Apr-19 19:01 34.556403 -118.010863 131 11551ft 212kts
06-Apr-19 19:02 34.516341 -117.957462 130 11552ft 217kts
06-Apr-19 19:03 34.484751 -117.893913 117 11552ft 221kts
06-Apr-19 19:04 34.455096 -117.828349 117 11543ft 222kts
06-Apr-19 19:05 34.425483 -117.762656 117 11539ft 221kts
06-Apr-19 19:06 34.395880 -117.697002 117 11539ft 221kts
06-Apr-19 19:07 34.370832 -117.629411 103 11532ft 219kts
06-Apr-19 19:08 34.354599 -117.558412 103 11532ft 219kts
06-Apr-19 19:09 34.338397 -117.487432 103 11284ft 208kts
06-Apr-19 19:10 34.332386 -117.423446 90 10617ft 186kts
06-Apr-19 19:11 34.322371 -117.361592 109 9961ft 189kts
06-Apr-19 19:12 34.298259 -117.306105 127 9530ft 177kts
06-Apr-19 19:13 34.269331 -117.262589 133 9526ft 158kts
06-Apr-19 19:14 34.234267 -117.211268 128 9526ft 207kts
06-Apr-19 19:15 34.203791 -117.152707 119 9527ft 205kts
06-Apr-19 19:16 34.159915 -117.127977 190 8822ft 177kts
06-Apr-19 19:17 34.114004 -117.134650 193 8019ft 148kts
06-Apr-19 19:18 34.071743 -117.141518 212 6898ft 155kts
06-Apr-19 19:19 34.049197 -117.182505 243 6037ft 132kts
06-Apr-19 19:20 34.029006 -117.226819 243 6023ft 159kts
06-Apr-19 19:21 34.007873 -117.273439 242 5170ft 151kts
06-Apr-19 19:22 33.990608 -117.311893 243 5020ft 132kts
06-Apr-19 19:23 33.973505 -117.349489 242 5027ft 135kts
06-Apr-19 19:24 33.953601 -117.393713 242 5030ft 159kts
06-Apr-19 19:26 34.011985 -117.462032 324 4036ft 159kts
06-Apr-19 19:27 33.995435 -117.488258 158 4040ft 166kts
06-Apr-19 19:28 33.952424 -117.477549 198 4025ft 160kts
06-Apr-19 19:29 33.960329 -117.510294 358 4039ft 167kts
06-Apr-19 19:30 34.002412 -117.490398 41 4027ft 172kts
06-Apr-19 19:31 34.033835 -117.447043 58 4024ft 173kts
06-Apr-19 19:32 34.048761 -117.390858 71 3743ft 183kts
06-Apr-19 19:33 34.061910 -117.346099 74 2930ft 110kts
06-Apr-19 19:34 34.072801 -117.311439 68 2045ft 103kts
06-Apr-19 19:35 34.083803 -117.273214 69 1652ft 127kts
06-Apr-19 19:36 34.094185 -117.238787 69 1161ft 59kts
06-Apr-19 19:37 34.096368 -117.236277 329 1161ft 11kts
06-Apr-19 19:38 34.097451 -117.236987 330 1161ft 12kts
06-Apr-19 19:39 34.098662 -117.241397 307 1161ft 18kts
06-Apr-19 19:40 34.101536 -117.242945 93 1161ft 0kts
06-Apr-19 19:41 34.101536 -117.242945 93 1161ft 0kts
06-Apr-19 19:42 34.101536 -117.242945 93 1161ft 0kts
06-Apr-19 19:43 34.101536 -117.242945 93 1161ft 0kts
06-Apr-19 19:44 34.101536 -117.242945 93 1161ft 0kts
06-Apr-19 19:45 34.101536 -117.242945 93 1161ft 0kts
06-Apr-19 19:46 34.101536 -117.242945 93 1161ft 0kts
06-Apr-19 19:47 34.101536 -117.242945 93 1161ft 0kts
06-Apr-19 19:48 34.101536 -117.242945 93 1161ft 0kts
06-Apr-19 19:49 34.101536 -117.242945 93 1161ft 0kts
06-Apr-19 19:50 34.101536 -117.242945 93 1161ft 0kts
06-Apr-19 19:51 34.101536 -117.242945 93 1161ft 0kts

Navigation Log

Ident Type
Flight plan parsing failed, navigation log unavailable